createdAt,value
2023-05-05T00:00:24.589Z,14.1
2023-05-05T00:12:24.520Z,14.0
2023-05-05T00:24:24.545Z,13.9
2023-05-05T00:36:24.534Z,13.7
2023-05-05T00:48:24.522Z,13.4
2023-05-05T01:00:24.485Z,13.4
2023-05-05T01:12:24.516Z,13.6
2023-05-05T01:24:24.416Z,13.5
2023-05-05T01:36:24.733Z,13.8
2023-05-05T01:48:24.508Z,13.6
2023-05-05T02:00:24.415Z,13.4
2023-05-05T02:12:24.411Z,13.3
2023-05-05T02:24:24.558Z,13.0
2023-05-05T02:36:24.541Z,12.9
2023-05-05T02:48:24.423Z,13.1
2023-05-05T03:00:24.429Z,13.1
2023-05-05T03:12:24.671Z,13.2
2023-05-05T03:24:24.486Z,13.0
2023-05-05T03:36:25.110Z,13.0
2023-05-05T03:48:24.525Z,13.1
2023-05-05T04:00:24.717Z,13.0
2023-05-05T04:12:24.437Z,12.7
2023-05-05T04:24:24.527Z,12.5
2023-05-05T04:36:24.520Z,12.4
2023-05-05T04:48:24.477Z,12.8
2023-05-05T05:00:24.502Z,13.2
2023-05-05T05:12:24.548Z,13.4
2023-05-05T05:24:24.431Z,13.5
2023-05-05T05:36:24.424Z,14.1
2023-05-05T05:48:24.529Z,14.4
2023-05-05T06:00:24.425Z,14.3
2023-05-05T06:12:24.445Z,14.5
2023-05-05T06:24:24.534Z,14.7
2023-05-05T06:36:24.592Z,14.7
2023-05-05T06:48:24.531Z,15.2
2023-05-05T07:00:24.479Z,15.7
2023-05-05T07:12:24.436Z,16.3
2023-05-05T07:24:24.541Z,17.1
2023-05-05T07:36:24.489Z,17.4
2023-05-05T07:48:24.505Z,16.9
2023-05-05T08:00:24.432Z,17.3
2023-05-05T08:12:24.561Z,17.5
2023-05-05T08:24:24.431Z,17.7
2023-05-05T08:36:24.436Z,18.2
2023-05-05T08:48:24.450Z,18.6
2023-05-05T09:00:24.449Z,18.6
2023-05-05T09:12:24.431Z,19.0
2023-05-05T09:24:24.422Z,19.3
2023-05-05T09:36:24.457Z,19.3
2023-05-05T09:48:24.458Z,20.8
2023-05-05T10:00:24.425Z,20.8
2023-05-05T10:12:24.415Z,20.1
2023-05-05T10:24:24.431Z,21.5
2023-05-05T10:36:24.453Z,21.6
2023-05-05T10:48:24.587Z,21.5
2023-05-05T11:00:24.435Z,20.6
2023-05-05T11:12:24.417Z,21.9
2023-05-05T11:24:24.422Z,21.6
2023-05-05T11:36:24.443Z,22.3
2023-05-05T11:48:24.425Z,21.9
2023-05-05T12:00:24.441Z,22.5
2023-05-05T12:12:24.434Z,22.6
2023-05-05T12:24:24.440Z,21.8
2023-05-05T12:36:24.431Z,21.3
2023-05-05T12:48:24.445Z,20.6
2023-05-05T13:00:24.426Z,17.4
2023-05-05T13:12:25.167Z,16.8
2023-05-05T13:24:31.590Z,16.8
2023-05-05T13:36:24.425Z,16.8
2023-05-05T13:48:24.443Z,16.7
2023-05-05T14:00:24.446Z,16.5
2023-05-05T14:12:24.477Z,16.3
2023-05-05T14:24:24.427Z,16.1
2023-05-05T14:36:24.427Z,15.8
2023-05-05T14:48:24.530Z,15.9
2023-05-05T15:00:24.505Z,15.8
2023-05-05T15:12:24.507Z,16.0
2023-05-05T15:24:24.446Z,16.2
2023-05-05T15:36:24.437Z,16.4
2023-05-05T15:48:24.415Z,16.8
2023-05-05T16:00:24.431Z,17.2
2023-05-05T16:12:24.435Z,17.5
2023-05-05T16:24:24.423Z,17.5
2023-05-05T16:36:24.886Z,17.7
2023-05-05T16:48:24.439Z,17.4
2023-05-05T17:00:24.444Z,17.4
2023-05-05T17:12:24.540Z,17.3
2023-05-05T17:24:24.414Z,17.1
2023-05-05T17:36:24.435Z,16.7
2023-05-05T17:48:24.424Z,16.0
2023-05-05T18:00:24.542Z,15.9
2023-05-05T18:12:24.423Z,15.8
2023-05-05T18:24:24.429Z,14.8
2023-05-05T18:36:24.438Z,14.3
2023-05-05T18:48:24.444Z,13.8
2023-05-05T19:00:24.434Z,13.6
2023-05-05T19:12:24.488Z,13.3
2023-05-05T19:24:24.497Z,13.1
2023-05-05T19:36:24.427Z,12.7
2023-05-05T19:48:24.441Z,12.7
2023-05-05T20:00:24.419Z,12.8
2023-05-05T20:12:24.416Z,12.7
2023-05-05T20:24:24.416Z,12.7
2023-05-05T20:36:24.436Z,12.6
2023-05-05T20:48:24.427Z,12.3
2023-05-05T21:00:24.476Z,12.0
2023-05-05T21:12:24.480Z,11.7
2023-05-05T21:24:24.445Z,11.9
2023-05-05T21:36:24.508Z,12.0
2023-05-05T21:48:24.578Z,12.1
2023-05-05T22:00:24.524Z,12.1
2023-05-05T22:12:24.423Z,12.2
2023-05-05T22:24:24.534Z,12.1
2023-05-05T22:36:24.501Z,12.1
2023-05-05T22:48:24.524Z,12.0
2023-05-05T23:00:24.560Z,12.0
2023-05-05T23:12:24.547Z,11.8
2023-05-05T23:24:24.548Z,11.5
2023-05-05T23:36:24.430Z,11.3
2023-05-05T23:48:24.537Z,11.3
